createdAt,value
2018-09-28T00:00:56.275Z,4.60
2018-09-28T00:03:24.939Z,4.47
2018-09-28T00:05:53.840Z,4.57
2018-09-28T00:08:22.522Z,5.13
2018-09-28T00:10:51.206Z,4.97
2018-09-28T00:13:19.903Z,4.27
2018-09-28T00:15:48.759Z,4.30
2018-09-28T00:18:17.432Z,4.00
2018-09-28T00:20:46.083Z,3.87
2018-09-28T00:23:14.745Z,3.53
2018-09-28T00:25:43.480Z,3.00
2018-09-28T00:28:12.149Z,2.30
2018-09-28T00:30:40.821Z,2.43
2018-09-28T00:33:09.487Z,2.50
2018-09-28T00:35:38.178Z,2.70
2018-09-28T00:38:06.895Z,3.30
2018-09-28T00:40:35.583Z,3.00
2018-09-28T00:43:04.284Z,2.70
2018-09-28T00:45:33.095Z,2.67
2018-09-28T00:48:01.740Z,2.33
2018-09-28T00:50:30.419Z,2.57
2018-09-28T00:52:59.063Z,2.37
2018-09-28T00:55:28.899Z,2.93
2018-09-28T00:57:57.578Z,2.43
2018-09-28T01:00:26.281Z,2.50
2018-09-28T01:02:54.956Z,2.43
2018-09-28T01:05:23.707Z,2.77
2018-09-28T01:07:52.528Z,2.50
2018-09-28T01:10:21.204Z,3.00
2018-09-28T01:12:49.943Z,3.00
2018-09-28T01:15:18.643Z,3.13
2018-09-28T01:17:47.360Z,3.37
2018-09-28T01:20:16.013Z,4.10
2018-09-28T01:22:44.675Z,3.80
2018-09-28T01:25:13.350Z,3.33
2018-09-28T01:27:43.220Z,3.17
2018-09-28T01:30:11.907Z,3.23
2018-09-28T01:32:40.584Z,3.53
2018-09-28T01:35:09.271Z,2.90
2018-09-28T01:37:37.956Z,3.70
2018-09-28T01:40:06.644Z,3.60
2018-09-28T01:42:35.308Z,3.43
2018-09-28T01:45:04.104Z,3.00
2018-09-28T01:47:32.754Z,2.97
2018-09-28T01:50:01.413Z,3.03
2018-09-28T01:52:30.105Z,3.27
2018-09-28T01:54:58.851Z,2.97
2018-09-28T01:57:27.772Z,3.20
2018-09-28T01:59:56.428Z,3.33
2018-09-28T02:02:25.475Z,3.33
2018-09-28T02:04:54.151Z,3.20
2018-09-28T02:07:22.829Z,3.63
2018-09-28T02:09:51.477Z,3.60
2018-09-28T02:12:20.218Z,4.03
2018-09-28T02:14:48.840Z,3.87
2018-09-28T02:17:17.506Z,4.07
2018-09-28T02:19:46.156Z,4.60
2018-09-28T02:22:14.907Z,4.43
2018-09-28T02:24:43.607Z,4.10
2018-09-28T02:27:12.276Z,4.33
2018-09-28T02:29:40.981Z,4.20
2018-09-28T02:32:09.648Z,4.63
2018-09-28T02:34:38.322Z,4.03
2018-09-28T02:37:07.464Z,4.03
2018-09-28T02:39:36.117Z,4.40
2018-09-28T02:42:04.961Z,4.13
2018-09-28T02:44:33.690Z,4.10
2018-09-28T02:47:02.335Z,4.47
2018-09-28T02:49:31.988Z,4.47
2018-09-28T02:52:00.655Z,4.20
2018-09-28T02:54:29.312Z,4.20
2018-09-28T02:56:58.259Z,4.40
2018-09-28T02:59:26.872Z,4.27
2018-09-28T03:01:55.589Z,4.40
2018-09-28T03:04:25.621Z,3.90
2018-09-28T03:06:54.271Z,4.13
2018-09-28T03:09:22.940Z,4.00
2018-09-28T03:11:51.608Z,4.13
2018-09-28T03:14:20.243Z,4.40
2018-09-28T03:16:49.937Z,3.93
2018-09-28T03:19:18.599Z,3.83
2018-09-28T03:21:47.255Z,4.03
2018-09-28T03:24:15.918Z,4.17
2018-09-28T03:26:44.568Z,4.10
2018-09-28T03:29:13.199Z,4.10
2018-09-28T03:31:41.840Z,4.70
2018-09-28T03:34:10.499Z,4.37
2018-09-28T03:36:39.159Z,4.27
2018-09-28T03:39:08.396Z,4.20
2018-09-28T03:41:37.227Z,4.40
2018-09-28T03:44:06.208Z,4.13
2018-09-28T03:46:35.119Z,3.97
2018-09-28T03:49:03.746Z,3.90
2018-09-28T03:51:32.433Z,4.20
2018-09-28T03:54:01.117Z,4.13
2018-09-28T03:56:29.743Z,4.03
2018-09-28T03:58:58.410Z,3.97
2018-09-28T04:01:27.090Z,3.93
2018-09-28T04:03:55.803Z,4.00
2018-09-28T04:06:24.460Z,3.90
2018-09-28T04:08:53.109Z,3.67
2018-09-28T04:11:21.783Z,3.70
2018-09-28T04:13:50.450Z,3.83
2018-09-28T04:16:20.261Z,3.93
2018-09-28T04:18:48.941Z,3.60
2018-09-28T04:21:17.644Z,3.60
2018-09-28T04:23:47.367Z,3.40
2018-09-28T04:26:16.040Z,3.40
2018-09-28T04:28:44.700Z,2.73
2018-09-28T04:31:13.384Z,3.00
2018-09-28T04:33:42.120Z,3.07
2018-09-28T04:36:10.805Z,3.00
2018-09-28T04:38:39.445Z,3.20
2018-09-28T04:41:08.151Z,3.40
2018-09-28T04:43:36.916Z,3.00
2018-09-28T04:46:05.699Z,2.70
2018-09-28T04:48:34.424Z,2.97
2018-09-28T04:51:03.132Z,2.90
2018-09-28T04:53:31.821Z,2.97
2018-09-28T04:56:00.492Z,2.77
2018-09-28T04:58:29.166Z,3.00
2018-09-28T05:00:57.831Z,2.73
2018-09-28T05:03:26.515Z,3.00
2018-09-28T05:05:55.168Z,2.80
2018-09-28T05:08:23.836Z,3.10
2018-09-28T05:10:52.488Z,3.17
2018-09-28T05:13:21.136Z,3.07
2018-09-28T05:15:49.986Z,2.90
2018-09-28T05:18:18.652Z,2.90
2018-09-28T05:20:47.324Z,3.13
2018-09-28T05:23:15.995Z,2.93
2018-09-28T05:25:44.665Z,3.00
2018-09-28T05:28:13.412Z,3.10
2018-09-28T05:30:44.971Z,3.17
2018-09-28T05:33:10.767Z,3.33
2018-09-28T05:35:39.431Z,3.67
2018-09-28T05:38:08.103Z,3.30
2018-09-28T05:40:36.767Z,3.17
2018-09-28T05:43:05.507Z,3.53
2018-09-28T05:45:34.188Z,3.93
2018-09-28T05:48:02.931Z,3.50
2018-09-28T05:50:31.600Z,3.70
2018-09-28T05:53:00.296Z,3.77
2018-09-28T05:55:29.006Z,3.70
2018-09-28T05:58:02.863Z,3.70
2018-09-28T06:00:36.849Z,4.23
2018-09-28T06:03:09.858Z,3.90
2018-09-28T06:05:42.784Z,4.20
2018-09-28T06:08:12.068Z,4.90
2018-09-28T06:10:40.751Z,4.63
2018-09-28T06:13:09.415Z,4.73
2018-09-28T06:15:38.318Z,4.80
2018-09-28T06:18:07.008Z,6.40
2018-09-28T06:20:35.711Z,4.90
2018-09-28T06:23:04.740Z,4.97
2018-09-28T06:25:33.516Z,4.37
2018-09-28T06:28:02.207Z,4.77
2018-09-28T06:30:30.928Z,4.87
2018-09-28T06:32:59.606Z,4.60
2018-09-28T06:35:28.300Z,4.40
2018-09-28T06:37:56.979Z,4.47
2018-09-28T06:40:25.727Z,6.80
2018-09-28T06:42:54.536Z,4.40
2018-09-28T06:45:23.225Z,4.20
2018-09-28T06:47:51.907Z,4.47
2018-09-28T06:50:20.595Z,4.20
2018-09-28T06:52:49.543Z,3.93
2018-09-28T06:55:18.241Z,4.13
2018-09-28T06:57:46.994Z,3.93
2018-09-28T07:00:15.879Z,4.13
2018-09-28T07:02:44.495Z,4.07
2018-09-28T07:05:13.223Z,4.20
2018-09-28T07:07:41.872Z,4.13
2018-09-28T07:10:10.665Z,4.10
2018-09-28T07:12:39.355Z,4.03
2018-09-28T07:15:08.086Z,4.00
2018-09-28T07:17:36.737Z,3.93
2018-09-28T07:20:05.614Z,4.00
2018-09-28T07:22:34.349Z,4.20
2018-09-28T07:25:03.086Z,3.97
2018-09-28T07:27:31.719Z,5.13
2018-09-28T07:30:00.428Z,5.13
2018-09-28T07:32:29.082Z,4.80
2018-09-28T07:34:57.791Z,4.20
2018-09-28T07:37:26.468Z,4.57
2018-09-28T07:39:55.167Z,4.60
2018-09-28T07:42:23.899Z,4.80
2018-09-28T07:44:52.539Z,4.73
2018-09-28T07:47:21.227Z,4.33
2018-09-28T07:49:50.023Z,4.80
2018-09-28T07:52:18.691Z,4.40
2018-09-28T07:54:47.438Z,4.70
2018-09-28T07:57:16.096Z,6.17
2018-09-28T07:59:44.768Z,6.03
2018-09-28T08:02:13.436Z,7.00
2018-09-28T08:04:42.101Z,8.23
2018-09-28T08:07:10.788Z,10.10
2018-09-28T08:09:39.441Z,8.50
2018-09-28T08:12:08.147Z,8.87
2018-09-28T08:14:36.896Z,7.53
2018-09-28T08:17:05.584Z,6.40
2018-09-28T08:19:34.269Z,6.83
2018-09-28T08:22:02.948Z,6.63
2018-09-28T08:24:31.633Z,7.67
2018-09-28T08:27:00.308Z,7.30
2018-09-28T08:29:28.972Z,8.37
2018-09-28T08:31:57.669Z,8.30
2018-09-28T08:34:26.330Z,6.97
2018-09-28T08:36:55.115Z,6.50
2018-09-28T08:39:23.756Z,6.40
2018-09-28T08:41:52.495Z,5.93
2018-09-28T08:44:21.169Z,5.87
2018-09-28T08:46:49.850Z,5.57
2018-09-28T08:49:18.618Z,5.57
2018-09-28T08:51:47.280Z,5.17
2018-09-28T08:54:17.068Z,4.83
2018-09-28T08:56:45.814Z,4.77
2018-09-28T08:59:14.514Z,5.07
2018-09-28T09:01:43.261Z,4.23
2018-09-28T09:04:11.980Z,4.70
2018-09-28T09:06:40.681Z,5.60
2018-09-28T09:09:11.460Z,6.23
2018-09-28T09:11:40.204Z,5.90
2018-09-28T09:14:09.081Z,5.97
2018-09-28T09:16:37.830Z,6.13
2018-09-28T09:19:06.506Z,5.73
2018-09-28T09:21:35.300Z,5.20
2018-09-28T09:24:04.173Z,5.33
2018-09-28T09:26:32.812Z,5.23
2018-09-28T09:29:01.556Z,4.60
2018-09-28T09:31:30.243Z,4.73
2018-09-28T09:33:58.990Z,4.20
2018-09-28T09:36:27.707Z,4.43
2018-09-28T09:38:56.488Z,4.23
2018-09-28T09:41:25.184Z,4.43
2018-09-28T09:43:53.894Z,4.27
2018-09-28T09:46:22.604Z,3.90
2018-09-28T09:48:51.354Z,4.13
2018-09-28T09:51:20.097Z,4.13
2018-09-28T09:53:48.878Z,4.27
2018-09-28T09:56:17.581Z,3.80
2018-09-28T09:58:46.300Z,3.90
2018-09-28T10:01:20.090Z,4.17
2018-09-28T10:03:50.206Z,4.00
2018-09-28T10:06:18.954Z,3.70
2018-09-28T10:08:47.907Z,3.87
2018-09-28T10:11:16.607Z,3.50
2018-09-28T10:13:45.302Z,3.57
2018-09-28T10:16:14.078Z,4.23
2018-09-28T10:18:42.769Z,3.30
2018-09-28T10:21:11.496Z,4.00
2018-09-28T10:23:40.260Z,4.30
2018-09-28T10:26:08.980Z,3.23
2018-09-28T10:28:37.770Z,3.53
2018-09-28T10:31:06.456Z,3.50
2018-09-28T10:33:35.250Z,3.47
2018-09-28T10:36:04.089Z,3.17
2018-09-28T10:38:32.844Z,3.43
2018-09-28T10:41:01.637Z,2.90
2018-09-28T10:43:30.294Z,3.20
2018-09-28T10:45:59.056Z,3.20
2018-09-28T10:48:27.761Z,3.30
2018-09-28T10:50:56.532Z,3.40
2018-09-28T10:53:25.197Z,2.77
2018-09-28T10:55:53.920Z,2.50
2018-09-28T10:58:22.876Z,3.10
2018-09-28T11:00:51.572Z,2.77
2018-09-28T11:03:20.351Z,3.30
2018-09-28T11:05:49.065Z,3.03
2018-09-28T11:08:17.848Z,2.53
2018-09-28T11:10:46.555Z,2.43
2018-09-28T11:13:15.366Z,2.67
2018-09-28T11:15:44.089Z,2.00
2018-09-28T11:18:12.813Z,2.10
2018-09-28T11:20:41.545Z,2.13
2018-09-28T11:23:10.252Z,2.10
2018-09-28T11:25:38.999Z,2.17
2018-09-28T11:28:07.726Z,1.80
2018-09-28T11:30:36.464Z,1.80
2018-09-28T11:33:05.166Z,2.00
2018-09-28T11:35:33.893Z,1.80
2018-09-28T11:38:02.751Z,1.97
2018-09-28T11:40:31.510Z,1.70
2018-09-28T11:43:00.219Z,1.73
2018-09-28T11:45:29.038Z,1.80
2018-09-28T11:47:57.714Z,1.83
2018-09-28T11:50:26.404Z,1.63
2018-09-28T11:52:55.248Z,1.43
2018-09-28T11:55:23.975Z,1.63
2018-09-28T11:57:52.689Z,1.30
2018-09-28T12:00:21.408Z,1.50
2018-09-28T12:02:50.229Z,1.27
2018-09-28T12:05:18.972Z,1.50
2018-09-28T12:07:47.688Z,1.03
2018-09-28T12:10:16.404Z,1.37
2018-09-28T12:12:45.184Z,1.30
2018-09-28T12:15:13.865Z,1.30
2018-09-28T12:17:42.577Z,1.30
2018-09-28T12:20:11.572Z,1.13
2018-09-28T12:22:40.388Z,1.17
2018-09-28T12:25:09.079Z,1.50
2018-09-28T12:27:37.821Z,1.13
2018-09-28T12:30:06.761Z,1.07
2018-09-28T12:32:35.456Z,1.00
2018-09-28T12:35:04.183Z,1.20
2018-09-28T12:37:32.908Z,1.10
2018-09-28T12:40:01.692Z,1.20
2018-09-28T12:42:30.433Z,1.10
2018-09-28T12:44:59.239Z,1.13
2018-09-28T12:47:27.875Z,1.03
2018-09-28T12:49:56.643Z,1.40
2018-09-28T12:52:25.806Z,1.00
2018-09-28T12:54:54.493Z,1.63
2018-09-28T12:57:23.175Z,1.33
2018-09-28T12:59:52.148Z,1.37
2018-09-28T13:02:20.873Z,1.20
2018-09-28T13:04:49.631Z,1.27
2018-09-28T13:07:18.319Z,0.90
2018-09-28T13:09:47.045Z,1.20
2018-09-28T13:12:15.809Z,1.13
2018-09-28T13:14:44.577Z,1.40
2018-09-28T13:17:13.212Z,1.30
2018-09-28T13:19:41.944Z,1.17
2018-09-28T13:22:10.601Z,1.30
2018-09-28T13:24:39.302Z,1.10
2018-09-28T13:27:08.032Z,1.33
2018-09-28T13:29:36.725Z,1.10
2018-09-28T13:32:05.429Z,1.30
2018-09-28T13:34:34.127Z,1.60
2018-09-28T13:37:03.718Z,1.40
2018-09-28T13:39:33.464Z,1.70
2018-09-28T13:42:02.217Z,1.33
2018-09-28T13:44:31.002Z,1.20
2018-09-28T13:46:59.769Z,1.77
2018-09-28T13:49:28.460Z,1.30
2018-09-28T13:51:57.189Z,1.20
2018-09-28T13:54:25.949Z,1.23
2018-09-28T13:56:54.628Z,1.40
2018-09-28T13:59:23.322Z,1.40
2018-09-28T14:01:52.027Z,1.40
2018-09-28T14:04:20.812Z,1.53
2018-09-28T14:06:49.650Z,1.63
2018-09-28T14:09:18.332Z,1.50
2018-09-28T14:11:47.067Z,1.23
2018-09-28T14:14:15.819Z,1.23
2018-09-28T14:16:44.566Z,1.10
2018-09-28T14:19:13.302Z,0.90
2018-09-28T14:21:42.242Z,1.30
2018-09-28T14:24:10.987Z,1.23
2018-09-28T14:26:39.914Z,1.70
2018-09-28T14:29:08.603Z,0.90
2018-09-28T14:31:37.335Z,1.60
2018-09-28T14:34:06.096Z,1.87
2018-09-28T14:36:34.870Z,1.90
2018-09-28T14:39:04.919Z,1.50
2018-09-28T14:41:33.807Z,1.00
2018-09-28T14:44:02.521Z,1.30
2018-09-28T14:46:31.244Z,1.27
2018-09-28T14:49:00.152Z,1.43
2018-09-28T14:51:28.718Z,0.90
2018-09-28T14:53:57.481Z,1.13
2018-09-28T14:56:26.243Z,1.33
2018-09-28T14:58:54.950Z,1.60
2018-09-28T15:01:23.849Z,1.30
2018-09-28T15:03:52.352Z,1.27
2018-09-28T15:06:21.115Z,1.63
2018-09-28T15:08:49.953Z,2.80
2018-09-28T15:11:18.732Z,3.00
2018-09-28T15:13:47.433Z,1.57
2018-09-28T15:16:16.157Z,2.00
2018-09-28T15:18:44.914Z,2.13
2018-09-28T15:21:13.579Z,2.30
2018-09-28T15:23:42.299Z,2.87
2018-09-28T15:26:10.992Z,3.50
2018-09-28T15:28:39.765Z,3.93
2018-09-28T15:31:08.467Z,3.73
2018-09-28T15:33:37.156Z,3.30
2018-09-28T15:36:06.020Z,3.20
2018-09-28T15:38:34.940Z,2.57
2018-09-28T15:41:03.768Z,1.60
2018-09-28T15:43:32.556Z,1.60
2018-09-28T15:46:01.416Z,2.27
2018-09-28T15:48:30.181Z,2.67
2018-09-28T15:50:59.089Z,2.30
2018-09-28T15:53:27.847Z,2.20
2018-09-28T15:55:56.769Z,2.50
2018-09-28T15:58:25.540Z,2.40
2018-09-28T16:00:54.229Z,1.77
2018-09-28T16:03:22.922Z,2.23
2018-09-28T16:05:51.652Z,2.30
2018-09-28T16:08:20.328Z,2.80
2018-09-28T16:10:49.123Z,2.60
2018-09-28T16:13:17.828Z,2.40
2018-09-28T16:15:46.640Z,2.10
2018-09-28T16:18:15.394Z,2.50
2018-09-28T16:20:44.176Z,3.23
2018-09-28T16:23:12.948Z,2.17
2018-09-28T16:25:41.672Z,1.90
2018-09-28T16:28:10.456Z,1.30
2018-09-28T16:30:39.212Z,1.53
2018-09-28T16:33:08.000Z,2.10
2018-09-28T16:35:36.707Z,2.63
2018-09-28T16:38:05.656Z,2.20
2018-09-28T16:40:34.465Z,1.33
2018-09-28T16:43:03.281Z,1.10
2018-09-28T16:45:32.089Z,2.30
2018-09-28T16:48:00.884Z,2.50
2018-09-28T16:50:29.656Z,3.10
2018-09-28T16:52:58.390Z,2.77
2018-09-28T16:55:27.134Z,3.03
2018-09-28T16:57:56.073Z,2.77
2018-09-28T17:00:24.908Z,3.37
2018-09-28T17:02:53.652Z,3.33
2018-09-28T17:05:22.585Z,3.23
2018-09-28T17:07:51.453Z,3.60
2018-09-28T17:10:20.276Z,3.00
2018-09-28T17:12:49.237Z,3.10
2018-09-28T17:15:18.123Z,2.43
2018-09-28T17:17:46.907Z,3.07
2018-09-28T17:20:15.703Z,3.30
2018-09-28T17:22:44.496Z,2.90
2018-09-28T17:25:13.272Z,2.97
2018-09-28T17:27:41.966Z,2.20
2018-09-28T17:30:10.815Z,2.20
2018-09-28T17:32:39.717Z,2.13
2018-09-28T17:35:08.648Z,1.97
2018-09-28T17:37:37.343Z,1.63
2018-09-28T17:40:06.365Z,1.73
2018-09-28T17:42:35.220Z,2.63
2018-09-28T17:45:04.071Z,2.17
2018-09-28T17:47:32.812Z,4.27
2018-09-28T17:50:01.603Z,4.40
2018-09-28T17:52:30.384Z,4.10
2018-09-28T17:54:59.120Z,3.13
2018-09-28T17:57:27.850Z,3.40
2018-09-28T17:59:56.597Z,4.33
2018-09-28T18:02:25.292Z,4.80
2018-09-28T18:04:54.032Z,4.93
2018-09-28T18:07:22.759Z,7.20
2018-09-28T18:09:51.512Z,6.20
2018-09-28T18:12:20.227Z,4.00
2018-09-28T18:14:49.017Z,3.53
2018-09-28T18:17:17.730Z,3.00
2018-09-28T18:19:46.393Z,3.30
2018-09-28T18:22:15.101Z,7.40
2018-09-28T18:24:43.760Z,6.70
2018-09-28T18:27:12.494Z,9.87
2018-09-28T18:29:41.153Z,10.50
2018-09-28T18:32:09.848Z,8.97
2018-09-28T18:34:38.508Z,6.93
2018-09-28T18:37:07.268Z,4.93
2018-09-28T18:39:35.981Z,4.90
2018-09-28T18:42:04.730Z,5.87
2018-09-28T18:44:33.386Z,5.50
2018-09-28T18:47:02.853Z,4.97
2018-09-28T18:49:31.672Z,5.70
2018-09-28T18:52:00.356Z,5.57
2018-09-28T18:54:29.028Z,5.20
2018-09-28T18:56:57.716Z,4.90
2018-09-28T18:59:26.545Z,5.40
2018-09-28T19:01:55.236Z,4.83
2018-09-28T19:04:23.969Z,6.20
2018-09-28T19:06:52.714Z,8.70
2018-09-28T19:09:21.605Z,8.00
2018-09-28T19:11:50.517Z,5.63
2018-09-28T19:14:19.228Z,3.83
2018-09-28T19:16:48.021Z,7.63
2018-09-28T19:19:16.798Z,7.30
2018-09-28T19:21:45.492Z,6.47
2018-09-28T19:24:14.176Z,6.33
2018-09-28T19:26:42.865Z,3.40
2018-09-28T19:29:11.597Z,3.40
2018-09-28T19:31:40.399Z,5.07
2018-09-28T19:34:09.180Z,8.63
2018-09-28T19:36:37.889Z,7.33
2018-09-28T19:39:08.613Z,8.13
2018-09-28T19:41:37.515Z,6.03
2018-09-28T19:44:06.432Z,4.77
2018-09-28T19:46:35.244Z,4.23
2018-09-28T19:49:03.974Z,4.83
2018-09-28T19:51:32.875Z,4.93
2018-09-28T19:54:01.580Z,5.40
2018-09-28T19:56:30.288Z,3.77
2018-09-28T19:58:59.501Z,3.20
2018-09-28T20:01:28.227Z,3.50
2018-09-28T20:03:56.932Z,4.33
2018-09-28T20:06:25.625Z,3.90
2018-09-28T20:08:54.387Z,5.17
2018-09-28T20:11:23.196Z,4.87
2018-09-28T20:13:51.949Z,4.90
2018-09-28T20:16:20.676Z,4.60
2018-09-28T20:18:49.471Z,4.93
2018-09-28T20:21:18.164Z,4.27
2018-09-28T20:23:46.877Z,4.50
2018-09-28T20:26:15.668Z,4.40
2018-09-28T20:28:44.372Z,4.50
2018-09-28T20:31:13.206Z,4.90
2018-09-28T20:33:41.976Z,4.40
2018-09-28T20:36:10.717Z,4.23
2018-09-28T20:38:39.568Z,4.30
2018-09-28T20:41:08.304Z,4.33
2018-09-28T20:43:37.024Z,4.47
2018-09-28T20:46:05.764Z,4.70
2018-09-28T20:48:34.536Z,3.93
2018-09-28T20:51:03.267Z,3.70
2018-09-28T20:53:32.053Z,3.53
2018-09-28T20:56:00.790Z,3.70
2018-09-28T20:58:29.501Z,3.67
2018-09-28T21:00:58.246Z,3.20
2018-09-28T21:03:26.965Z,3.00
2018-09-28T21:05:55.651Z,2.90
2018-09-28T21:08:24.341Z,2.47
2018-09-28T21:10:53.093Z,2.50
2018-09-28T21:13:21.926Z,2.70
2018-09-28T21:15:50.600Z,2.43
2018-09-28T21:18:19.727Z,2.27
2018-09-28T21:20:48.534Z,2.57
2018-09-28T21:23:17.272Z,2.10
2018-09-28T21:25:45.976Z,2.73
2018-09-28T21:28:14.678Z,2.53
2018-09-28T21:30:43.368Z,2.53
2018-09-28T21:33:12.052Z,2.47
2018-09-28T21:35:40.764Z,2.30
2018-09-28T21:38:09.465Z,2.70
2018-09-28T21:40:38.112Z,2.27
2018-09-28T21:43:07.868Z,2.50
2018-09-28T21:45:36.541Z,2.33
2018-09-28T21:48:05.268Z,2.23
2018-09-28T21:50:33.949Z,2.43
2018-09-28T21:53:02.665Z,3.07
2018-09-28T21:55:31.335Z,2.57
2018-09-28T21:58:00.008Z,2.83
2018-09-28T22:00:28.789Z,2.57
2018-09-28T22:02:57.711Z,2.33
2018-09-28T22:05:26.376Z,2.60
2018-09-28T22:07:55.060Z,2.90
2018-09-28T22:10:23.755Z,2.50
2018-09-28T22:12:52.440Z,2.93
2018-09-28T22:15:21.127Z,2.57
2018-09-28T22:17:49.867Z,2.63
2018-09-28T22:20:18.620Z,2.60
2018-09-28T22:22:47.351Z,2.50
2018-09-28T22:25:16.079Z,2.70
2018-09-28T22:27:44.767Z,2.20
2018-09-28T22:30:13.427Z,2.50
2018-09-28T22:32:42.073Z,4.30
2018-09-28T22:35:10.775Z,4.10
2018-09-28T22:37:39.467Z,3.87
2018-09-28T22:40:08.115Z,3.53
2018-09-28T22:42:36.823Z,3.50
2018-09-28T22:45:05.483Z,3.50
2018-09-28T22:47:34.155Z,3.80
2018-09-28T22:50:02.809Z,3.73
2018-09-28T22:52:31.480Z,4.43
2018-09-28T22:55:00.198Z,4.80
2018-09-28T22:57:28.896Z,5.00
2018-09-28T22:59:57.651Z,4.43
2018-09-28T23:02:26.328Z,4.10
2018-09-28T23:04:55.036Z,4.40
2018-09-28T23:07:23.738Z,7.63
2018-09-28T23:09:52.428Z,8.07
2018-09-28T23:12:21.151Z,6.30
2018-09-28T23:14:49.880Z,5.27
2018-09-28T23:17:18.612Z,3.70
2018-09-28T23:19:47.573Z,2.60
2018-09-28T23:22:16.400Z,3.13
2018-09-28T23:24:45.076Z,2.63
2018-09-28T23:27:13.835Z,2.40
2018-09-28T23:29:42.624Z,2.07
2018-09-28T23:32:11.276Z,2.10
2018-09-28T23:34:39.988Z,2.57
2018-09-28T23:37:08.713Z,1.83
2018-09-28T23:39:37.473Z,1.70
2018-09-28T23:42:06.220Z,2.07
2018-09-28T23:44:35.009Z,2.73
2018-09-28T23:47:03.706Z,2.80
2018-09-28T23:49:32.411Z,2.10
2018-09-28T23:52:01.076Z,2.17
2018-09-28T23:54:29.720Z,2.40
2018-09-28T23:56:58.402Z,1.77
2018-09-28T23:59:27.089Z,2.07
